sensor_id;sensor_type;location;lat;lon;timestamp;pressure;altitude;pressure_sealevel;temperature;humidity
74169;BME280;62523;53.336;83.690;2024-01-15T00:00:20;100243.59;;;-21.07;100.00
74169;BME280;62523;53.336;83.690;2024-01-15T00:05:22;100244.59;;;-21.04;100.00
74169;BME280;62523;53.336;83.690;2024-01-15T00:10:23;100280.88;;;-21.10;100.00
74169;BME280;62523;53.336;83.690;2024-01-15T00:15:25;100292.28;;;-21.13;100.00
74169;BME280;62523;53.336;83.690;2024-01-15T00:20:29;100300.66;;;-21.13;100.00
74169;BME280;62523;53.336;83.690;2024-01-15T00:25:31;100326.69;;;-21.11;100.00
74169;BME280;62523;53.336;83.690;2024-01-15T00:30:32;100332.94;;;-21.16;100.00
74169;BME280;62523;53.336;83.690;2024-01-15T00:35:34;100357.97;;;-21.16;100.00
74169;BME280;62523;53.336;83.690;2024-01-15T00:40:36;100362.72;;;-21.19;100.00
74169;BME280;62523;53.336;83.690;2024-01-15T00:45:37;100367.31;;;-21.23;100.00
74169;BME280;62523;53.336;83.690;2024-01-15T00:50:39;100393.91;;;-21.15;100.00
74169;BME280;62523;53.336;83.690;2024-01-15T00:55:40;100401.97;;;-21.28;100.00
74169;BME280;62523;53.336;83.690;2024-01-15T01:00:42;100401.69;;;-21.31;100.00
74169;BME280;62523;53.336;83.690;2024-01-15T01:05:43;100407.22;;;-21.25;100.00
74169;BME280;62523;53.336;83.690;2024-01-15T01:10:45;100420.09;;;-21.31;100.00
74169;BME280;62523;53.336;83.690;2024-01-15T01:15:47;100414.81;;;-21.34;100.00
74169;BME280;62523;53.336;83.690;2024-01-15T01:20:48;100417.69;;;-21.39;100.00
74169;BME280;62523;53.336;83.690;2024-01-15T01:25:50;100420.56;;;-21.45;100.00
74169;BME280;62523;53.336;83.690;2024-01-15T01:30:51;100435.31;;;-21.48;100.00
74169;BME280;62523;53.336;83.690;2024-01-15T01:35:53;100451.06;;;-21.49;100.00
74169;BME280;62523;53.336;83.690;2024-01-15T01:40:54;100456.75;;;-21.60;100.00
74169;BME280;62523;53.336;83.690;2024-01-15T01:45:56;100476.00;;;-21.59;100.00
74169;BME280;62523;53.336;83.690;2024-01-15T01:50:59;100482.84;;;-21.67;100.00
74169;BME280;62523;53.336;83.690;2024-01-15T01:56:02;100498.78;;;-21.75;100.00
74169;BME280;62523;53.336;83.690;2024-01-15T02:01:04;100497.13;;;-21.75;100.00
74169;BME280;62523;53.336;83.690;2024-01-15T02:06:05;100513.63;;;-21.77;100.00
74169;BME280;62523;53.336;83.690;2024-01-15T02:11:07;100530.88;;;-21.80;100.00
74169;BME280;62523;53.336;83.690;2024-01-15T02:16:08;100531.47;;;-21.82;100.00
74169;BME280;62523;53.336;83.690;2024-01-15T02:21:10;100525.56;;;-21.83;100.00
74169;BME280;62523;53.336;83.690;2024-01-15T02:26:12;100537.25;;;-21.92;100.00
74169;BME280;62523;53.336;83.690;2024-01-15T02:31:14;100555.16;;;-21.87;100.00
74169;BME280;62523;53.336;83.690;2024-01-15T02:36:16;100577.22;;;-21.83;100.00
74169;BME280;62523;53.336;83.690;2024-01-15T02:41:17;100586.94;;;-21.86;100.00
74169;BME280;62523;53.336;83.690;2024-01-15T02:46:19;100583.13;;;-21.92;100.00
74169;BME280;62523;53.336;83.690;2024-01-15T02:51:20;100582.81;;;-21.86;100.00
74169;BME280;62523;53.336;83.690;2024-01-15T02:56:22;100590.03;;;-21.89;100.00
74169;BME280;62523;53.336;83.690;2024-01-15T03:01:23;100613.69;;;-21.85;100.00
74169;BME280;62523;53.336;83.690;2024-01-15T03:06:25;100614.59;;;-21.94;100.00
74169;BME280;62523;53.336;83.690;2024-01-15T03:11:26;100616.53;;;-21.91;100.00
74169;BME280;62523;53.336;83.690;2024-01-15T03:16:27;100633.56;;;-21.87;100.00
74169;BME280;62523;53.336;83.690;2024-01-15T03:21:29;100638.97;;;-21.74;100.00
74169;BME280;62523;53.336;83.690;2024-01-15T03:26:30;100660.41;;;-21.67;100.00
74169;BME280;62523;53.336;83.690;2024-01-15T03:31:32;100658.97;;;-21.74;100.00
74169;BME280;62523;53.336;83.690;2024-01-15T03:36:33;100670.28;;;-21.77;100.00
74169;BME280;62523;53.336;83.690;2024-01-15T03:41:35;100675.25;;;-21.69;100.00
74169;BME280;62523;53.336;83.690;2024-01-15T03:46:36;100676.59;;;-21.72;100.00
74169;BME280;62523;53.336;83.690;2024-01-15T03:51:38;100682.13;;;-21.57;100.00
74169;BME280;62523;53.336;83.690;2024-01-15T03:56:40;100688.06;;;-21.65;100.00
74169;BME280;62523;53.336;83.690;2024-01-15T04:01:48;100688.13;;;-21.46;100.00
74169;BME280;62523;53.336;83.690;2024-01-15T04:06:50;100686.94;;;-21.41;100.00
74169;BME280;62523;53.336;83.690;2024-01-15T04:11:52;100694.97;;;-21.35;100.00
74169;BME280;62523;53.336;83.690;2024-01-15T04:16:53;100697.59;;;-21.34;100.00
74169;BME280;62523;53.336;83.690;2024-01-15T04:21:55;100705.50;;;-21.29;100.00
74169;BME280;62523;53.336;83.690;2024-01-15T04:26:56;100715.59;;;-21.10;100.00
74169;BME280;62523;53.336;83.690;2024-01-15T04:31:58;100701.94;;;-21.14;100.00
74169;BME280;62523;53.336;83.690;2024-01-15T04:36:59;100715.28;;;-21.04;100.00
74169;BME280;62523;53.336;83.690;2024-01-15T04:42:01;100715.13;;;-21.06;100.00
74169;BME280;62523;53.336;83.690;2024-01-15T04:47:11;100715.84;;;-20.98;99.66
74169;BME280;62523;53.336;83.690;2024-01-15T04:52:13;100735.41;;;-21.22;98.85
74169;BME280;62523;53.336;83.690;2024-01-15T04:57:14;100736.88;;;-21.24;99.05
74169;BME280;62523;53.336;83.690;2024-01-15T05:02:16;100736.00;;;-21.24;99.80
74169;BME280;62523;53.336;83.690;2024-01-15T05:07:17;100725.59;;;-21.10;100.00
74169;BME280;62523;53.336;83.690;2024-01-15T05:12:19;100739.28;;;-21.07;100.00
74169;BME280;62523;53.336;83.690;2024-01-15T05:17:20;100746.81;;;-21.07;100.00
74169;BME280;62523;53.336;83.690;2024-01-15T05:22:22;100736.53;;;-20.91;100.00
74169;BME280;62523;53.336;83.690;2024-01-15T05:27:25;100738.69;;;-20.76;99.77
74169;BME280;62523;53.336;83.690;2024-01-15T05:32:28;100750.28;;;-20.96;98.84
74169;BME280;62523;53.336;83.690;2024-01-15T05:37:30;100748.53;;;-20.78;98.42
74169;BME280;62523;53.336;83.690;2024-01-15T05:42:31;100767.00;;;-20.86;98.03
74169;BME280;62523;53.336;83.690;2024-01-15T05:47:33;100746.44;;;-20.73;97.80
74169;BME280;62523;53.336;83.690;2024-01-15T05:52:35;100760.09;;;-20.61;96.88
74169;BME280;62523;53.336;83.690;2024-01-15T05:57:36;100755.44;;;-20.67;96.48
74169;BME280;62523;53.336;83.690;2024-01-15T06:02:38;100732.19;;;-20.74;95.84
74169;BME280;62523;53.336;83.690;2024-01-15T06:07:41;100732.53;;;-20.61;95.79
74169;BME280;62523;53.336;83.690;2024-01-15T06:12:43;100733.81;;;-20.56;95.57
74169;BME280;62523;53.336;83.690;2024-01-15T06:17:45;100728.84;;;-20.65;95.91
74169;BME280;62523;53.336;83.690;2024-01-15T06:22:47;100719.84;;;-20.62;96.26
74169;BME280;62523;53.336;83.690;2024-01-15T06:27:48;100718.19;;;-20.43;96.98
74169;BME280;62523;53.336;83.690;2024-01-15T06:32:49;100722.22;;;-20.45;96.79
74169;BME280;62523;53.336;83.690;2024-01-15T06:37:51;100721.66;;;-20.32;96.45
74169;BME280;62523;53.336;83.690;2024-01-15T06:42:53;100731.25;;;-20.47;96.49
74169;BME280;62523;53.336;83.690;2024-01-15T06:47:54;100732.69;;;-20.30;97.15
74169;BME280;62523;53.336;83.690;2024-01-15T06:52:55;100736.09;;;-20.30;97.75
74169;BME280;62523;53.336;83.690;2024-01-15T06:57:56;100738.31;;;-19.95;97.83
74169;BME280;62523;53.336;83.690;2024-01-15T07:02:58;100753.19;;;-20.26;97.64
74169;BME280;62523;53.336;83.690;2024-01-15T07:07:59;100761.38;;;-20.18;97.32
74169;BME280;62523;53.336;83.690;2024-01-15T07:13:01;100760.09;;;-20.23;97.94
74169;BME280;62523;53.336;83.690;2024-01-15T07:18:03;100778.66;;;-20.21;97.51
74169;BME280;62523;53.336;83.690;2024-01-15T07:23:04;100793.50;;;-19.95;97.66
74169;BME280;62523;53.336;83.690;2024-01-15T07:28:06;100794.03;;;-20.08;96.57
74169;BME280;62523;53.336;83.690;2024-01-15T07:33:07;100792.31;;;-19.79;96.44
74169;BME280;62523;53.336;83.690;2024-01-15T07:38:09;100808.72;;;-19.54;96.55
74169;BME280;62523;53.336;83.690;2024-01-15T07:43:12;100796.38;;;-19.71;95.73
74169;BME280;62523;53.336;83.690;2024-01-15T07:48:14;100800.84;;;-19.48;95.64
74169;BME280;62523;53.336;83.690;2024-01-15T07:53:16;100800.66;;;-19.31;95.75
74169;BME280;62523;53.336;83.690;2024-01-15T07:58:17;100790.63;;;-19.21;94.62
74169;BME280;62523;53.336;83.690;2024-01-15T08:03:18;100788.13;;;-19.21;94.91
74169;BME280;62523;53.336;83.690;2024-01-15T08:08:20;100800.19;;;-19.27;94.94
74169;BME280;62523;53.336;83.690;2024-01-15T08:13:22;100801.47;;;-19.11;94.72
74169;BME280;62523;53.336;83.690;2024-01-15T08:18:23;100808.25;;;-19.10;94.13
74169;BME280;62523;53.336;83.690;2024-01-15T08:23:25;100812.94;;;-18.84;93.00
74169;BME280;62523;53.336;83.690;2024-01-15T08:28:29;100797.25;;;-18.61;93.23
74169;BME280;62523;53.336;83.690;2024-01-15T08:33:31;100804.91;;;-18.80;92.53
74169;BME280;62523;53.336;83.690;2024-01-15T08:38:32;100805.16;;;-18.57;93.67
74169;BME280;62523;53.336;83.690;2024-01-15T08:43:37;100817.38;;;-18.61;92.20
74169;BME280;62523;53.336;83.690;2024-01-15T08:48:39;100821.41;;;-18.53;92.73
74169;BME280;62523;53.336;83.690;2024-01-15T08:53:40;100823.50;;;-18.88;93.86
74169;BME280;62523;53.336;83.690;2024-01-15T08:58:42;100825.63;;;-18.93;95.42
74169;BME280;62523;53.336;83.690;2024-01-15T09:03:43;100831.75;;;-19.00;96.16
74169;BME280;62523;53.336;83.690;2024-01-15T09:08:48;100849.53;;;-19.17;97.33
74169;BME280;62523;53.336;83.690;2024-01-15T09:13:51;100851.38;;;-19.35;98.28
74169;BME280;62523;53.336;83.690;2024-01-15T09:18:53;100853.72;;;-19.36;98.80
74169;BME280;62523;53.336;83.690;2024-01-15T09:23:58;100850.44;;;-19.46;99.38
74169;BME280;62523;53.336;83.690;2024-01-15T09:28:59;100850.44;;;-19.46;99.25
74169;BME280;62523;53.336;83.690;2024-01-15T09:34:02;100862.66;;;-19.59;99.56
74169;BME280;62523;53.336;83.690;2024-01-15T09:39:03;100882.06;;;-19.67;99.62
74169;BME280;62523;53.336;83.690;2024-01-15T09:44:05;100888.47;;;-19.70;99.55
74169;BME280;62523;53.336;83.690;2024-01-15T09:49:08;100898.38;;;-19.72;100.00
74169;BME280;62523;53.336;83.690;2024-01-15T09:54:10;100901.53;;;-19.83;100.00
74169;BME280;62523;53.336;83.690;2024-01-15T09:59:18;100899.59;;;-19.77;100.00
74169;BME280;62523;53.336;83.690;2024-01-15T10:04:20;100900.34;;;-19.78;100.00
74169;BME280;62523;53.336;83.690;2024-01-15T10:09:21;100892.34;;;-19.93;100.00
74169;BME280;62523;53.336;83.690;2024-01-15T10:14:24;100893.22;;;-19.92;100.00
74169;BME280;62523;53.336;83.690;2024-01-15T10:19:25;100892.41;;;-20.01;100.00
74169;BME280;62523;53.336;83.690;2024-01-15T10:24:30;100886.00;;;-19.98;100.00
74169;BME280;62523;53.336;83.690;2024-01-15T10:29:31;100904.78;;;-20.03;100.00
74169;BME280;62523;53.336;83.690;2024-01-15T10:34:33;100911.03;;;-20.08;100.00
74169;BME280;62523;53.336;83.690;2024-01-15T10:39:35;100918.13;;;-20.13;100.00
74169;BME280;62523;53.336;83.690;2024-01-15T10:44:37;100920.81;;;-20.20;100.00
74169;BME280;62523;53.336;83.690;2024-01-15T10:49:39;100928.19;;;-20.21;100.00
74169;BME280;62523;53.336;83.690;2024-01-15T10:54:41;100929.09;;;-20.21;100.00
74169;BME280;62523;53.336;83.690;2024-01-15T10:59:44;100947.88;;;-20.35;100.00
74169;BME280;62523;53.336;83.690;2024-01-15T11:04:45;100944.19;;;-20.30;100.00
74169;BME280;62523;53.336;83.690;2024-01-15T11:09:47;100964.53;;;-20.35;100.00
74169;BME280;62523;53.336;83.690;2024-01-15T11:14:50;100984.19;;;-20.40;100.00
74169;BME280;62523;53.336;83.690;2024-01-15T11:19:51;101000.41;;;-20.36;100.00
74169;BME280;62523;53.336;83.690;2024-01-15T11:24:53;100997.00;;;-20.46;100.00
74169;BME280;62523;53.336;83.690;2024-01-15T11:30:04;100992.16;;;-20.44;100.00
74169;BME280;62523;53.336;83.690;2024-01-15T11:35:06;101001.31;;;-20.53;100.00
74169;BME280;62523;53.336;83.690;2024-01-15T11:40:10;101012.50;;;-20.50;100.00
74169;BME280;62523;53.336;83.690;2024-01-15T11:45:15;101020.22;;;-20.57;100.00
74169;BME280;62523;53.336;83.690;2024-01-15T11:50:21;101010.38;;;-20.64;100.00
74169;BME280;62523;53.336;83.690;2024-01-15T11:55:38;101030.84;;;-20.59;100.00
74169;BME280;62523;53.336;83.690;2024-01-15T12:00:42;101033.53;;;-20.67;100.00
74169;BME280;62523;53.336;83.690;2024-01-15T12:05:44;101043.69;;;-20.74;100.00
74169;BME280;62523;53.336;83.690;2024-01-15T12:10:45;101057.06;;;-20.65;100.00
74169;BME280;62523;53.336;83.690;2024-01-15T12:15:47;101063.13;;;-20.71;100.00
74169;BME280;62523;53.336;83.690;2024-01-15T12:20:50;101068.44;;;-20.68;100.00
74169;BME280;62523;53.336;83.690;2024-01-15T12:25:51;101063.44;;;-20.68;100.00
74169;BME280;62523;53.336;83.690;2024-01-15T12:30:53;101056.78;;;-20.68;100.00
74169;BME280;62523;53.336;83.690;2024-01-15T12:35:56;101068.91;;;-20.72;100.00
74169;BME280;62523;53.336;83.690;2024-01-15T12:41:00;101082.28;;;-20.72;100.00
74169;BME280;62523;53.336;83.690;2024-01-15T12:46:02;101091.72;;;-20.78;100.00
74169;BME280;62523;53.336;83.690;2024-01-15T12:51:06;101086.72;;;-20.78;100.00
74169;BME280;62523;53.336;83.690;2024-01-15T12:56:07;101094.97;;;-20.88;100.00
74169;BME280;62523;53.336;83.690;2024-01-15T13:01:09;101099.13;;;-20.88;100.00
74169;BME280;62523;53.336;83.690;2024-01-15T13:06:11;101104.25;;;-20.87;100.00
74169;BME280;62523;53.336;83.690;2024-01-15T13:11:12;101098.81;;;-20.91;100.00
74169;BME280;62523;53.336;83.690;2024-01-15T13:16:14;101111.31;;;-20.91;100.00
74169;BME280;62523;53.336;83.690;2024-01-15T13:21:15;101125.31;;;-20.84;100.00
74169;BME280;62523;53.336;83.690;2024-01-15T13:26:17;101131.09;;;-20.86;100.00
74169;BME280;62523;53.336;83.690;2024-01-15T13:31:20;101136.53;;;-20.90;100.00
74169;BME280;62523;53.336;83.690;2024-01-15T13:36:22;101127.09;;;-20.92;100.00
74169;BME280;62523;53.336;83.690;2024-01-15T13:41:24;101145.69;;;-20.81;100.00
74169;BME280;62523;53.336;83.690;2024-01-15T13:46:29;101151.25;;;-20.84;100.00
74169;BME280;62523;53.336;83.690;2024-01-15T13:51:30;101155.22;;;-20.86;100.00
74169;BME280;62523;53.336;83.690;2024-01-15T13:56:33;101168.94;;;-20.91;100.00
74169;BME280;62523;53.336;83.690;2024-01-15T14:01:36;101165.72;;;-20.90;100.00
74169;BME280;62523;53.336;83.690;2024-01-15T14:06:37;101179.38;;;-20.87;100.00
74169;BME280;62523;53.336;83.690;2024-01-15T14:11:40;101179.72;;;-20.83;100.00
74169;BME280;62523;53.336;83.690;2024-01-15T14:16:42;101183.69;;;-20.86;100.00
74169;BME280;62523;53.336;83.690;2024-01-15T14:21:43;101183.81;;;-20.84;100.00
74169;BME280;62523;53.336;83.690;2024-01-15T14:26:45;101198.97;;;-20.91;100.00
74169;BME280;62523;53.336;83.690;2024-01-15T14:31:46;101201.19;;;-20.94;100.00
74169;BME280;62523;53.336;83.690;2024-01-15T14:36:48;101199.56;;;-20.94;100.00
74169;BME280;62523;53.336;83.690;2024-01-15T14:41:50;101193.38;;;-20.97;100.00
74169;BME280;62523;53.336;83.690;2024-01-15T14:46:53;101200.28;;;-20.95;100.00
74169;BME280;62523;53.336;83.690;2024-01-15T14:51:54;101195.44;;;-20.93;100.00
74169;BME280;62523;53.336;83.690;2024-01-15T14:56:59;101207.69;;;-20.96;100.00
74169;BME280;62523;53.336;83.690;2024-01-15T15:02:11;101210.31;;;-20.95;100.00
74169;BME280;62523;53.336;83.690;2024-01-15T15:07:13;101214.59;;;-20.94;100.00
74169;BME280;62523;53.336;83.690;2024-01-15T15:12:14;101214.13;;;-21.07;100.00
74169;BME280;62523;53.336;83.690;2024-01-15T15:17:16;101208.81;;;-21.01;100.00
74169;BME280;62523;53.336;83.690;2024-01-15T15:22:17;101208.97;;;-21.00;100.00
74169;BME280;62523;53.336;83.690;2024-01-15T15:27:20;101213.69;;;-21.03;100.00
74169;BME280;62523;53.336;83.690;2024-01-15T15:32:21;101207.66;;;-21.05;100.00
74169;BME280;62523;53.336;83.690;2024-01-15T15:37:23;101209.16;;;-20.98;100.00
74169;BME280;62523;53.336;83.690;2024-01-15T15:42:24;101211.50;;;-20.91;100.00
74169;BME280;62523;53.336;83.690;2024-01-15T15:47:26;101217.25;;;-21.01;100.00
74169;BME280;62523;53.336;83.690;2024-01-15T15:52:27;101217.25;;;-21.01;100.00
74169;BME280;62523;53.336;83.690;2024-01-15T15:57:29;101224.88;;;-21.08;100.00
74169;BME280;62523;53.336;83.690;2024-01-15T16:02:32;101221.91;;;-21.13;100.00
74169;BME280;62523;53.336;83.690;2024-01-15T16:07:33;101224.09;;;-21.24;100.00
74169;BME280;62523;53.336;83.690;2024-01-15T16:12:35;101220.56;;;-21.27;100.00
74169;BME280;62523;53.336;83.690;2024-01-15T16:17:36;101219.84;;;-21.17;100.00
74169;BME280;62523;53.336;83.690;2024-01-15T16:22:38;101218.06;;;-21.18;100.00
74169;BME280;62523;53.336;83.690;2024-01-15T16:27:39;101226.44;;;-21.26;100.00
74169;BME280;62523;53.336;83.690;2024-01-15T16:32:42;101223.47;;;-21.31;100.00
74169;BME280;62523;53.336;83.690;2024-01-15T16:37:43;101231.09;;;-21.38;100.00
74169;BME280;62523;53.336;83.690;2024-01-15T16:42:45;101231.84;;;-21.39;100.00
74169;BME280;62523;53.336;83.690;2024-01-15T16:47:47;101236.72;;;-21.32;100.00
74169;BME280;62523;53.336;83.690;2024-01-15T16:52:48;101219.34;;;-21.30;100.00
74169;BME280;62523;53.336;83.690;2024-01-15T16:57:49;101225.44;;;-21.11;100.00
74169;BME280;62523;53.336;83.690;2024-01-15T17:02:51;101226.75;;;-21.14;100.00
74169;BME280;62523;53.336;83.690;2024-01-15T17:07:52;101235.44;;;-21.19;100.00
74169;BME280;62523;53.336;83.690;2024-01-15T17:12:53;101232.22;;;-21.10;100.00
74169;BME280;62523;53.336;83.690;2024-01-15T17:17:55;101241.66;;;-21.16;100.00
74169;BME280;62523;53.336;83.690;2024-01-15T17:22:56;101234.44;;;-21.13;100.00
74169;BME280;62523;53.336;83.690;2024-01-15T17:27:59;101241.16;;;-21.20;100.00
74169;BME280;62523;53.336;83.690;2024-01-15T17:33:02;101243.66;;;-21.20;100.00
74169;BME280;62523;53.336;83.690;2024-01-15T17:38:04;101252.13;;;-21.11;100.00
74169;BME280;62523;53.336;83.690;2024-01-15T17:43:05;101258.75;;;-21.12;100.00
74169;BME280;62523;53.336;83.690;2024-01-15T17:48:07;101261.09;;;-21.13;100.00
74169;BME280;62523;53.336;83.690;2024-01-15T17:53:12;101265.66;;;-21.18;100.00
74169;BME280;62523;53.336;83.690;2024-01-15T17:58:13;101267.22;;;-21.18;100.00
74169;BME280;62523;53.336;83.690;2024-01-15T18:03:14;101276.16;;;-21.29;100.00
74169;BME280;62523;53.336;83.690;2024-01-15T18:08:15;101277.00;;;-21.13;100.00
74169;BME280;62523;53.336;83.690;2024-01-15T18:13:17;101288.56;;;-20.89;100.00
74169;BME280;62523;53.336;83.690;2024-01-15T18:18:18;101287.94;;;-20.95;100.00
74169;BME280;62523;53.336;83.690;2024-01-15T18:23:19;101294.31;;;-20.90;100.00
74169;BME280;62523;53.336;83.690;2024-01-15T18:28:21;101293.13;;;-20.93;100.00
74169;BME280;62523;53.336;83.690;2024-01-15T18:33:22;101296.00;;;-21.06;100.00
74169;BME280;62523;53.336;83.690;2024-01-15T18:38:23;101296.59;;;-21.09;100.00
74169;BME280;62523;53.336;83.690;2024-01-15T18:43:25;101294.09;;;-21.09;100.00
74169;BME280;62523;53.336;83.690;2024-01-15T18:48:26;101305.72;;;-21.09;100.00
74169;BME280;62523;53.336;83.690;2024-01-15T18:53:28;101304.28;;;-21.07;100.00
74169;BME280;62523;53.336;83.690;2024-01-15T18:58:29;101303.81;;;-21.12;100.00
74169;BME280;62523;53.336;83.690;2024-01-15T19:03:33;101302.78;;;-21.14;100.00
74169;BME280;62523;53.336;83.690;2024-01-15T19:08:34;101307.63;;;-21.15;100.00
74169;BME280;62523;53.336;83.690;2024-01-15T19:13:36;101308.81;;;-21.12;100.00
74169;BME280;62523;53.336;83.690;2024-01-15T19:18:38;101305.06;;;-21.24;100.00
74169;BME280;62523;53.336;83.690;2024-01-15T19:23:40;101320.19;;;-21.31;100.00
74169;BME280;62523;53.336;83.690;2024-01-15T19:28:41;101324.97;;;-21.17;100.00
74169;BME280;62523;53.336;83.690;2024-01-15T19:33:42;101325.72;;;-21.18;100.00
74169;BME280;62523;53.336;83.690;2024-01-15T19:38:44;101337.41;;;-21.34;100.00
74169;BME280;62523;53.336;83.690;2024-01-15T19:43:45;101319.59;;;-21.37;100.00
74169;BME280;62523;53.336;83.690;2024-01-15T19:48:47;101319.88;;;-21.34;100.00
74169;BME280;62523;53.336;83.690;2024-01-15T19:53:49;101322.63;;;-21.40;100.00
74169;BME280;62523;53.336;83.690;2024-01-15T19:58:50;101322.53;;;-21.41;100.00
74169;BME280;62523;53.336;83.690;2024-01-15T20:03:52;101323.25;;;-21.42;100.00
74169;BME280;62523;53.336;83.690;2024-01-15T20:08:53;101336.19;;;-21.46;100.00
74169;BME280;62523;53.336;83.690;2024-01-15T20:13:55;101341.72;;;-21.58;100.00
74169;BME280;62523;53.336;83.690;2024-01-15T20:18:57;101349.78;;;-21.60;100.00
74169;BME280;62523;53.336;83.690;2024-01-15T20:23:58;101359.91;;;-21.67;100.00
74169;BME280;62523;53.336;83.690;2024-01-15T20:29:00;101368.28;;;-21.67;100.00
74169;BME280;62523;53.336;83.690;2024-01-15T20:34:01;101377.41;;;-21.67;100.00
74169;BME280;62523;53.336;83.690;2024-01-15T20:39:03;101379.97;;;-21.75;100.00
74169;BME280;62523;53.336;83.690;2024-01-15T20:44:04;101382.00;;;-21.79;100.00
74169;BME280;62523;53.336;83.690;2024-01-15T20:49:06;101384.09;;;-21.75;100.00
74169;BME280;62523;53.336;83.690;2024-01-15T20:54:07;101394.34;;;-21.81;100.00
74169;BME280;62523;53.336;83.690;2024-01-15T20:59:08;101385.88;;;-21.90;100.00
74169;BME280;62523;53.336;83.690;2024-01-15T21:04:10;101386.75;;;-21.90;100.00
74169;BME280;62523;53.336;83.690;2024-01-15T21:09:13;101388.38;;;-21.90;100.00
74169;BME280;62523;53.336;83.690;2024-01-15T21:14:14;101385.63;;;-22.00;100.00
74169;BME280;62523;53.336;83.690;2024-01-15T21:19:19;101393.63;;;-21.96;100.00
74169;BME280;62523;53.336;83.690;2024-01-15T21:24:21;101395.91;;;-22.06;100.00
74169;BME280;62523;53.336;83.690;2024-01-15T21:29:28;101408.06;;;-22.09;100.00
74169;BME280;62523;53.336;83.690;2024-01-15T21:34:29;101417.59;;;-21.98;100.00
74169;BME280;62523;53.336;83.690;2024-01-15T21:39:31;101416.03;;;-22.20;100.00
74169;BME280;62523;53.336;83.690;2024-01-15T21:44:33;101413.13;;;-22.48;100.00
74169;BME280;62523;53.336;83.690;2024-01-15T21:49:34;101423.63;;;-22.66;100.00
74169;BME280;62523;53.336;83.690;2024-01-15T21:54:36;101422.00;;;-22.89;100.00
74169;BME280;62523;53.336;83.690;2024-01-15T21:59:37;101429.44;;;-22.82;100.00
74169;BME280;62523;53.336;83.690;2024-01-15T22:04:39;101428.28;;;-22.69;100.00
74169;BME280;62523;53.336;83.690;2024-01-15T22:09:40;101442.09;;;-22.80;100.00
74169;BME280;62523;53.336;83.690;2024-01-15T22:14:42;101455.38;;;-22.65;100.00
74169;BME280;62523;53.336;83.690;2024-01-15T22:19:44;101460.75;;;-22.69;100.00
74169;BME280;62523;53.336;83.690;2024-01-15T22:24:45;101449.03;;;-22.78;100.00
74169;BME280;62523;53.336;83.690;2024-01-15T22:29:47;101449.03;;;-22.78;100.00
74169;BME280;62523;53.336;83.690;2024-01-15T22:34:51;101463.56;;;-22.89;100.00
74169;BME280;62523;53.336;83.690;2024-01-15T22:39:53;101464.56;;;-22.80;100.00
74169;BME280;62523;53.336;83.690;2024-01-15T22:44:54;101469.91;;;-22.77;100.00
74169;BME280;62523;53.336;83.690;2024-01-15T22:49:56;101473.88;;;-22.86;100.00
74169;BME280;62523;53.336;83.690;2024-01-15T22:54:58;101474.13;;;-22.92;100.00
74169;BME280;62523;53.336;83.690;2024-01-15T22:59:59;101480.09;;;-22.83;100.00
74169;BME280;62523;53.336;83.690;2024-01-15T23:05:01;101487.81;;;-22.88;100.00
74169;BME280;62523;53.336;83.690;2024-01-15T23:10:05;101497.38;;;-23.00;100.00
74169;BME280;62523;53.336;83.690;2024-01-15T23:15:07;101494.06;;;-23.15;100.00
74169;BME280;62523;53.336;83.690;2024-01-15T23:20:10;101489.06;;;-23.15;100.00
74169;BME280;62523;53.336;83.690;2024-01-15T23:25:12;101491.25;;;-23.25;100.00
74169;BME280;62523;53.336;83.690;2024-01-15T23:30:13;101487.88;;;-23.26;100.00
74169;BME280;62523;53.336;83.690;2024-01-15T23:35:14;101488.63;;;-23.34;100.00
74169;BME280;62523;53.336;83.690;2024-01-15T23:40:16;101495.00;;;-23.22;100.00
74169;BME280;62523;53.336;83.690;2024-01-15T23:45:17;101495.16;;;-23.20;100.00
74169;BME280;62523;53.336;83.690;2024-01-15T23:50:19;101490.09;;;-23.43;100.00
74169;BME280;62523;53.336;83.690;2024-01-15T23:55:20;101490.38;;;-23.26;100.00
